Time;durP1;ratioP1;P1;durP2;ratioP2;P2;SDS_P1;SDS_P2;PMS_P1;PMS_P2;Temp;Humidity;BMP_temperature;BMP_pressure;BME280_temperature;BME280_humidity;BME280_pressure;Samples;Min_cycle;Max_cycle;Signal;HPM_P1;HPM_P2
2021/01/23 00:01:05;;;;;;;0.22;0.22;;;;;;;;;;4995438;28;20639;-77
2021/01/23 00:03:30;;;;;;;0.30;0.30;;;;;;;;;;4979777;28;20027;-77
2021/01/23 00:05:55;;;;;;;0.30;0.30;;;;;;;;;;4996679;28;20015;-77
2021/01/23 00:08:21;;;;;;;0.30;0.30;;;;;;;;;;5009061;28;20458;-76
2021/01/23 00:10:46;;;;;;;0.20;0.20;;;;;;;;;;4999152;28;20418;-77
2021/01/23 00:13:11;;;;;;;0.20;0.20;;;;;;;;;;4998121;28;20455;-77
2021/01/23 00:15:37;;;;;;;0.20;0.20;;;;;;;;;;5015796;28;20025;-76
2021/01/23 00:18:02;;;;;;;0.20;0.20;;;;;;;;;;4996010;28;20022;-77
2021/01/23 00:20:27;;;;;;;0.30;0.30;;;;;;;;;;5000309;28;20034;-77
2021/01/23 00:22:53;;;;;;;0.30;0.30;;;;;;;;;;4983534;28;20356;-76
2021/01/23 00:25:18;;;;;;;0.30;0.30;;;;;;;;;;4997584;28;20025;-76
2021/01/23 00:27:43;;;;;;;0.30;0.30;;;;;;;;;;4980039;28;20024;-76
2021/01/23 00:30:09;;;;;;;0.30;0.30;;;;;;;;;;4977961;28;20023;-76
2021/01/23 00:32:34;;;;;;;0.30;0.30;;;;;;;;;;4978335;28;20530;-76
2021/01/23 00:35:00;;;;;;;0.20;0.20;;;;;;;;;;5009546;28;20137;-76
2021/01/23 00:37:25;;;;;;;0.20;0.20;;;;;;;;;;4997349;28;20022;-76
2021/01/23 00:39:50;;;;;;;0.20;0.20;;;;;;;;;;4975397;28;20027;-76
2021/01/23 00:42:15;;;;;;;0.20;0.20;;;;;;;;;;4996903;28;20285;-78
2021/01/23 00:44:40;;;;;;;0.20;0.20;;;;;;;;;;4964999;28;20475;-76
2021/01/23 00:47:06;;;;;;;0.30;0.30;;;;;;;;;;4995472;28;20250;-77
2021/01/23 00:49:31;;;;;;;0.20;0.20;;;;;;;;;;4992932;28;20050;-75
2021/01/23 00:51:56;;;;;;;0.20;0.20;;;;;;;;;;4980099;28;20490;-76
2021/01/23 00:54:21;;;;;;;0.30;0.30;;;;;;;;;;4996678;28;20261;-76
2021/01/23 00:56:48;;;;;;;0.30;0.30;;;;;;;;;;4997018;28;20053;-75
2021/01/23 00:59:13;;;;;;;0.22;0.22;;;;;;;;;;4996387;28;20018;-74
2021/01/23 01:01:38;;;;;;;0.20;0.20;;;;;;;;;;4979598;28;20022;-76
2021/01/23 01:04:03;;;;;;;0.20;0.20;;;;;;;;;;4981100;28;20256;-77
2021/01/23 01:06:28;;;;;;;0.20;0.20;;;;;;;;;;4998334;28;20288;-77
2021/01/23 01:08:53;;;;;;;0.20;0.20;;;;;;;;;;4999172;28;20053;-76
2021/01/23 01:11:19;;;;;;;0.30;0.30;;;;;;;;;;5007801;28;20526;-77
2021/01/23 01:13:44;;;;;;;0.30;0.30;;;;;;;;;;5003501;28;20292;-77
2021/01/23 01:16:10;;;;;;;0.20;0.20;;;;;;;;;;4997307;28;20117;-77
2021/01/23 01:18:36;;;;;;;0.30;0.30;;;;;;;;;;5013453;28;20276;-77
2021/01/23 01:21:01;;;;;;;0.30;0.30;;;;;;;;;;5013651;28;20402;-77
2021/01/23 01:23:26;;;;;;;0.22;0.22;;;;;;;;;;5013133;28;20446;-78
2021/01/23 01:25:51;;;;;;;0.20;0.20;;;;;;;;;;5013079;28;20021;-77
2021/01/23 01:28:16;;;;;;;0.30;0.30;;;;;;;;;;5014874;28;20037;-77
2021/01/23 01:30:42;;;;;;;0.20;0.20;;;;;;;;;;4989451;28;20261;-77
2021/01/23 01:33:09;;;;;;;0.20;0.20;;;;;;;;;;4994400;28;20262;-77
2021/01/23 01:35:34;;;;;;;0.20;0.20;;;;;;;;;;4997228;28;20025;-78
2021/01/23 01:37:59;;;;;;;0.22;0.22;;;;;;;;;;5006905;28;20455;-77
2021/01/23 01:40:25;;;;;;;0.30;0.30;;;;;;;;;;5003119;28;21663;-77
2021/01/23 01:42:50;;;;;;;0.20;0.20;;;;;;;;;;5012827;28;20080;-77
2021/01/23 01:45:15;;;;;;;0.20;0.20;;;;;;;;;;4994075;28;20792;-77
2021/01/23 01:47:40;;;;;;;0.30;0.30;;;;;;;;;;4980769;28;20050;-77
2021/01/23 01:50:06;;;;;;;0.20;0.20;;;;;;;;;;5006312;28;20109;-77
2021/01/23 01:52:31;;;;;;;0.20;0.20;;;;;;;;;;4999662;28;20264;-77
2021/01/23 01:54:56;;;;;;;0.22;0.22;;;;;;;;;;5014122;28;20124;-77
2021/01/23 01:57:22;;;;;;;0.20;0.20;;;;;;;;;;5014448;28;20509;-77
2021/01/23 01:59:48;;;;;;;0.30;0.30;;;;;;;;;;4998045;28;20026;-77
2021/01/23 02:02:13;;;;;;;0.30;0.30;;;;;;;;;;5013964;28;20449;-77
2021/01/23 02:04:43;;;;;;;0.30;0.30;;;;;;;;;;4998495;28;20049;-77
2021/01/23 02:07:12;;;;;;;0.20;0.20;;;;;;;;;;5014101;28;20803;-76
2021/01/23 02:09:56;;;;;;;0.30;0.30;;;;;;;;;;4995259;28;20690;-77
2021/01/23 02:12:27;;;;;;;0.30;0.30;;;;;;;;;;5014162;28;20088;-76
2021/01/23 02:14:59;;;;;;;0.30;0.30;;;;;;;;;;5008698;28;20473;-77
2021/01/23 02:17:28;;;;;;;0.20;0.20;;;;;;;;;;4996142;28;20030;-77
2021/01/23 02:20:29;;;;;;;0.30;0.30;;;;;;;;;;5014122;28;20018;-76
2021/01/23 02:23:26;;;;;;;0.22;0.22;;;;;;;;;;4959109;28;20041;-77
2021/01/23 02:25:55;;;;;;;0.20;0.20;;;;;;;;;;4994429;28;20382;-77
2021/01/23 02:28:20;;;;;;;0.20;0.20;;;;;;;;;;4996108;28;20204;-76
2021/01/23 02:31:04;;;;;;;0.20;0.20;;;;;;;;;;4996428;28;20022;-77
2021/01/23 02:33:31;;;;;;;0.20;0.20;;;;;;;;;;4997352;28;20025;-77
2021/01/23 02:35:56;;;;;;;0.20;0.20;;;;;;;;;;4996303;28;20465;-77
2021/01/23 02:38:21;;;;;;;0.20;0.20;;;;;;;;;;4979643;28;20112;-77
2021/01/23 02:40:46;;;;;;;0.20;0.20;;;;;;;;;;4979747;28;20023;-76
2021/01/23 02:43:11;;;;;;;0.20;0.20;;;;;;;;;;4995735;28;20105;-76
2021/01/23 02:45:37;;;;;;;0.20;0.20;;;;;;;;;;5013039;28;20401;-76
2021/01/23 02:48:02;;;;;;;0.30;0.30;;;;;;;;;;5016533;28;20269;-76
2021/01/23 02:50:28;;;;;;;0.30;0.30;;;;;;;;;;5015305;28;20017;-76
2021/01/23 02:52:57;;;;;;;0.20;0.20;;;;;;;;;;5014823;28;20371;-76
2021/01/23 02:55:23;;;;;;;0.20;0.20;;;;;;;;;;4995263;28;20065;-76
2021/01/23 02:57:49;;;;;;;0.20;0.20;;;;;;;;;;4998255;28;20018;-76
2021/01/23 03:00:14;;;;;;;0.30;0.30;;;;;;;;;;5004375;28;20081;-76
2021/01/23 03:02:44;;;;;;;0.20;0.20;;;;;;;;;;5000639;28;20040;-76
2021/01/23 03:05:09;;;;;;;0.30;0.30;;;;;;;;;;5014765;28;20026;-76
2021/01/23 03:07:34;;;;;;;0.30;0.30;;;;;;;;;;5014648;28;20819;-76
2021/01/23 03:10:09;;;;;;;0.20;0.20;;;;;;;;;;5014182;28;20061;-76
2021/01/23 03:12:35;;;;;;;0.20;0.20;;;;;;;;;;4998052;28;20034;-76
2021/01/23 03:15:00;;;;;;;0.20;0.20;;;;;;;;;;5015261;28;20083;-77
2021/01/23 03:17:26;;;;;;;0.20;0.20;;;;;;;;;;5007840;28;20037;-77
2021/01/23 03:19:51;;;;;;;0.20;0.20;;;;;;;;;;5012502;28;20022;-77
2021/01/23 03:22:17;;;;;;;0.20;0.20;;;;;;;;;;5017054;28;20022;-77
2021/01/23 03:24:42;;;;;;;0.20;0.20;;;;;;;;;;5015095;28;20053;-77
2021/01/23 03:27:07;;;;;;;0.20;0.20;;;;;;;;;;5014861;28;20442;-77
2021/01/23 03:29:33;;;;;;;0.28;0.28;;;;;;;;;;5015732;28;20072;-76
2021/01/23 03:31:58;;;;;;;0.20;0.20;;;;;;;;;;4998506;28;20045;-77
2021/01/23 03:34:25;;;;;;;0.28;0.28;;;;;;;;;;5015021;28;20268;-77
2021/01/23 03:36:51;;;;;;;0.20;0.20;;;;;;;;;;5014706;28;20034;-77
2021/01/23 03:39:16;;;;;;;0.22;0.22;;;;;;;;;;5014415;28;20474;-77
2021/01/23 03:41:41;;;;;;;0.20;0.20;;;;;;;;;;5015573;28;20041;-78
2021/01/23 03:44:07;;;;;;;0.20;0.20;;;;;;;;;;5000770;28;20022;-77
2021/01/23 03:46:32;;;;;;;0.28;0.28;;;;;;;;;;5017571;28;20021;-77
2021/01/23 03:48:58;;;;;;;0.20;0.20;;;;;;;;;;5016490;28;20026;-77
2021/01/23 03:51:23;;;;;;;0.30;0.30;;;;;;;;;;5016066;28;20107;-76
2021/01/23 03:53:48;;;;;;;0.20;0.20;;;;;;;;;;5015852;28;20022;-76
2021/01/23 03:56:13;;;;;;;0.30;0.30;;;;;;;;;;5015928;28;20022;-76
2021/01/23 03:58:39;;;;;;;0.20;0.20;;;;;;;;;;5015700;28;20026;-76
2021/01/23 04:01:04;;;;;;;0.20;0.20;;;;;;;;;;5015911;28;20117;-76
2021/01/23 04:03:30;;;;;;;0.20;0.20;;;;;;;;;;5015467;28;20272;-75
2021/01/23 04:05:56;;;;;;;0.30;0.30;;;;;;;;;;5014374;28;20072;-75
2021/01/23 04:08:21;;;;;;;0.20;0.20;;;;;;;;;;5014556;28;20072;-75
2021/01/23 04:10:46;;;;;;;0.20;0.20;;;;;;;;;;5012840;28;20479;-75
2021/01/23 04:13:11;;;;;;;0.20;0.20;;;;;;;;;;4997015;28;20269;-75
2021/01/23 04:15:37;;;;;;;0.30;0.30;;;;;;;;;;5013565;28;20029;-74
2021/01/23 04:18:03;;;;;;;0.20;0.20;;;;;;;;;;5013390;28;20026;-74
2021/01/23 04:20:28;;;;;;;0.20;0.20;;;;;;;;;;5013457;28;20022;-74
2021/01/23 04:22:54;;;;;;;0.20;0.20;;;;;;;;;;5013269;28;20030;-74
2021/01/23 04:25:19;;;;;;;0.23;0.23;;;;;;;;;;4996944;28;20022;-73
2021/01/23 04:27:45;;;;;;;0.20;0.20;;;;;;;;;;5013641;28;20292;-74
2021/01/23 04:30:11;;;;;;;0.30;0.30;;;;;;;;;;5014495;28;20026;-75
2021/01/23 04:32:36;;;;;;;0.20;0.20;;;;;;;;;;5013334;28;20076;-75
2021/01/23 04:35:05;;;;;;;0.30;0.30;;;;;;;;;;4992302;28;20030;-75
2021/01/23 04:37:31;;;;;;;0.20;0.20;;;;;;;;;;4993637;28;20513;-75
2021/01/23 04:39:56;;;;;;;0.20;0.20;;;;;;;;;;4994669;28;20027;-75
2021/01/23 04:42:21;;;;;;;0.30;0.30;;;;;;;;;;4988151;28;20382;-75
2021/01/23 04:44:50;;;;;;;0.30;0.30;;;;;;;;;;4997251;28;20022;-75
2021/01/23 04:47:15;;;;;;;0.30;0.30;;;;;;;;;;5014275;28;20018;-76
2021/01/23 04:49:40;;;;;;;0.30;0.30;;;;;;;;;;5012287;28;20033;-76
2021/01/23 04:52:06;;;;;;;0.20;0.20;;;;;;;;;;5000307;28;20379;-76
2021/01/23 04:54:31;;;;;;;0.30;0.30;;;;;;;;;;4997781;28;20374;-75
2021/01/23 04:56:56;;;;;;;0.20;0.20;;;;;;;;;;4997286;28;20402;-75
2021/01/23 04:59:21;;;;;;;0.20;0.20;;;;;;;;;;4997003;28;20498;-75
2021/01/23 05:02:07;;;;;;;0.20;0.20;;;;;;;;;;5013564;28;20284;-75
2021/01/23 05:04:45;;;;;;;0.30;0.30;;;;;;;;;;5013473;28;20032;-75
2021/01/23 05:07:10;;;;;;;0.30;0.30;;;;;;;;;;5015198;28;20292;-76
2021/01/23 05:09:36;;;;;;;0.30;0.30;;;;;;;;;;5015913;28;20444;-76
2021/01/23 05:12:02;;;;;;;0.30;0.30;;;;;;;;;;4997795;28;20017;-76
2021/01/23 05:14:27;;;;;;;0.30;0.30;;;;;;;;;;4997922;28;20054;-75
2021/01/23 05:16:52;;;;;;;0.20;0.20;;;;;;;;;;4997600;28;20018;-76
2021/01/23 05:19:17;;;;;;;0.20;0.20;;;;;;;;;;5015110;28;20753;-76
2021/01/23 05:21:43;;;;;;;0.20;0.20;;;;;;;;;;4981077;28;20041;-76
2021/01/23 05:24:09;;;;;;;0.20;0.20;;;;;;;;;;4983145;28;20025;-77
2021/01/23 05:26:35;;;;;;;0.20;0.20;;;;;;;;;;5002248;28;20272;-76
2021/01/23 05:29:10;;;;;;;0.20;0.20;;;;;;;;;;5001264;28;20014;-76
2021/01/23 05:31:35;;;;;;;0.30;0.30;;;;;;;;;;4984747;28;20046;-77
2021/01/23 05:34:01;;;;;;;0.30;0.30;;;;;;;;;;5001332;28;20026;-77
2021/01/23 05:36:26;;;;;;;0.30;0.30;;;;;;;;;;4985196;28;20029;-77
2021/01/23 05:38:51;;;;;;;0.30;0.30;;;;;;;;;;5002288;28;20048;-77
2021/01/23 05:41:17;;;;;;;0.30;0.30;;;;;;;;;;5002749;28;20292;-77
2021/01/23 05:43:45;;;;;;;0.30;0.30;;;;;;;;;;5020249;28;20097;-77
2021/01/23 05:46:16;;;;;;;0.28;0.28;;;;;;;;;;5020642;28;20022;-77
2021/01/23 05:48:42;;;;;;;0.20;0.20;;;;;;;;;;5006702;28;20022;-77
2021/01/23 05:51:07;;;;;;;0.30;0.30;;;;;;;;;;4970906;28;20541;-77
2021/01/23 05:53:33;;;;;;;0.30;0.30;;;;;;;;;;4986743;28;20029;-77
2021/01/23 05:56:01;;;;;;;0.20;0.20;;;;;;;;;;4972200;28;20118;-77
2021/01/23 05:58:33;;;;;;;0.30;0.30;;;;;;;;;;4993997;28;20022;-77
2021/01/23 06:00:59;;;;;;;0.30;0.30;;;;;;;;;;4987705;28;20022;-77
2021/01/23 06:03:43;;;;;;;0.30;0.30;;;;;;;;;;4989284;28;20072;-76
2021/01/23 06:06:08;;;;;;;0.30;0.30;;;;;;;;;;4984198;28;20009;-75
2021/01/23 06:08:37;;;;;;;0.30;0.30;;;;;;;;;;5000973;28;20494;-75
2021/01/23 06:11:02;;;;;;;0.30;0.30;;;;;;;;;;4984997;28;20113;-76
2021/01/23 06:13:34;;;;;;;0.20;0.20;;;;;;;;;;4980505;28;20068;-75
2021/01/23 06:16:00;;;;;;;0.20;0.20;;;;;;;;;;5001005;28;20269;-76
2021/01/23 06:18:29;;;;;;;0.30;0.30;;;;;;;;;;4983413;28;20072;-75
2021/01/23 06:20:58;;;;;;;0.30;0.30;;;;;;;;;;4984465;28;20057;-76
2021/01/23 06:23:43;;;;;;;0.30;0.30;;;;;;;;;;4984410;28;20018;-76
2021/01/23 06:26:08;;;;;;;0.30;0.30;;;;;;;;;;5018573;28;20105;-76
2021/01/23 06:28:39;;;;;;;0.30;0.30;;;;;;;;;;5000790;28;20112;-76
2021/01/23 06:31:23;;;;;;;0.22;0.22;;;;;;;;;;4999866;28;20267;-76
2021/01/23 06:33:48;;;;;;;0.30;0.30;;;;;;;;;;4993700;28;20458;-76
2021/01/23 06:36:17;;;;;;;0.30;0.30;;;;;;;;;;4980860;28;20111;-75
2021/01/23 06:38:58;;;;;;;0.30;0.30;;;;;;;;;;4977987;28;20026;-76
2021/01/23 06:41:27;;;;;;;0.30;0.30;;;;;;;;;;4972829;28;20057;-76
2021/01/23 06:44:11;;;;;;;0.30;0.30;;;;;;;;;;4994585;28;20020;-76
2021/01/23 06:46:40;;;;;;;0.20;0.20;;;;;;;;;;5010764;28;20433;-76
2021/01/23 06:49:06;;;;;;;0.30;0.30;;;;;;;;;;4990343;28;20010;-76
2021/01/23 06:51:31;;;;;;;0.30;0.30;;;;;;;;;;4994009;28;20037;-76
2021/01/23 06:54:09;;;;;;;0.30;0.30;;;;;;;;;;4980887;28;20426;-76
2021/01/23 06:56:34;;;;;;;0.30;0.30;;;;;;;;;;4974869;28;20030;-76
2021/01/23 06:59:00;;;;;;;0.30;0.30;;;;;;;;;;4973726;28;20022;-76
2021/01/23 07:01:25;;;;;;;0.30;0.30;;;;;;;;;;4974309;28;20021;-76
2021/01/23 07:03:50;;;;;;;0.30;0.30;;;;;;;;;;4991705;28;20056;-76
2021/01/23 07:06:15;;;;;;;0.30;0.30;;;;;;;;;;4993043;28;20069;-76
2021/01/23 07:08:42;;;;;;;0.30;0.30;;;;;;;;;;4978011;28;20026;-76
2021/01/23 07:11:10;;;;;;;0.30;0.30;;;;;;;;;;4980107;28;20125;-76
2021/01/23 07:13:36;;;;;;;0.30;0.30;;;;;;;;;;5012999;28;20026;-74
2021/01/23 07:16:01;;;;;;;0.20;0.20;;;;;;;;;;5013816;28;20132;-74
2021/01/23 07:18:27;;;;;;;0.30;0.30;;;;;;;;;;4993435;28;20044;-74
2021/01/23 07:20:53;;;;;;;0.30;0.30;;;;;;;;;;5018496;28;20064;-75
2021/01/23 07:23:19;;;;;;;0.30;0.30;;;;;;;;;;4990749;28;20403;-75
2021/01/23 07:25:44;;;;;;;0.30;0.30;;;;;;;;;;5009689;28;20022;-75
2021/01/23 07:28:09;;;;;;;0.30;0.30;;;;;;;;;;4993464;28;20414;-76
2021/01/23 07:30:35;;;;;;;0.30;0.30;;;;;;;;;;4977156;28;20113;-76
2021/01/23 07:33:00;;;;;;;0.30;0.30;;;;;;;;;;5002557;28;20048;-76
2021/01/23 07:35:25;;;;;;;0.30;0.30;;;;;;;;;;4976705;28;20025;-76
2021/01/23 07:37:51;;;;;;;0.30;0.30;;;;;;;;;;4993194;28;20058;-76
2021/01/23 07:40:17;;;;;;;0.25;0.25;;;;;;;;;;5012893;28;20053;-76
2021/01/23 07:42:42;;;;;;;0.30;0.30;;;;;;;;;;4985675;28;20018;-76
2021/01/23 07:45:08;;;;;;;0.20;0.20;;;;;;;;;;4997961;28;20023;-76
2021/01/23 07:47:33;;;;;;;0.30;0.30;;;;;;;;;;4981393;28;20054;-75
2021/01/23 07:50:03;;;;;;;0.28;0.28;;;;;;;;;;4998793;28;20041;-77
2021/01/23 07:52:28;;;;;;;0.25;0.25;;;;;;;;;;4974787;28;20387;-76
2021/01/23 07:54:57;;;;;;;0.30;0.30;;;;;;;;;;4978467;28;20026;-76
2021/01/23 07:57:22;;;;;;;0.30;0.30;;;;;;;;;;5004405;28;20269;-76
2021/01/23 07:59:47;;;;;;;0.30;0.30;;;;;;;;;;4999258;28;20029;-77
2021/01/23 08:02:13;;;;;;;0.30;0.30;;;;;;;;;;5001622;28;20028;-77
2021/01/23 08:04:39;;;;;;;0.30;0.30;;;;;;;;;;4985561;28;20022;-77
2021/01/23 08:07:26;;;;;;;0.30;0.30;;;;;;;;;;5003074;28;20080;-77
2021/01/23 08:10:04;;;;;;;0.25;0.25;;;;;;;;;;5011933;28;20073;-78
2021/01/23 08:12:29;;;;;;;0.30;0.30;;;;;;;;;;5020731;28;20026;-77
2021/01/23 08:14:55;;;;;;;0.30;0.30;;;;;;;;;;5018528;28;20025;-76
2021/01/23 08:17:40;;;;;;;0.30;0.30;;;;;;;;;;5003301;28;20032;-77
2021/01/23 08:20:06;;;;;;;0.30;0.30;;;;;;;;;;5019140;28;20478;-76
2021/01/23 08:22:31;;;;;;;0.30;0.30;;;;;;;;;;5019009;28;20025;-77
2021/01/23 08:24:57;;;;;;;0.32;0.32;;;;;;;;;;5002647;28;20029;-76
2021/01/23 08:27:22;;;;;;;0.30;0.30;;;;;;;;;;5020648;28;20014;-77
2021/01/23 08:29:48;;;;;;;0.30;0.30;;;;;;;;;;5018303;28;20038;-75
2021/01/23 08:32:13;;;;;;;0.30;0.30;;;;;;;;;;4998713;28;20026;-76
2021/01/23 08:34:38;;;;;;;0.30;0.30;;;;;;;;;;4996032;28;20019;-76
2021/01/23 08:37:04;;;;;;;0.30;0.30;;;;;;;;;;4996352;28;20018;-76
2021/01/23 08:39:29;;;;;;;0.30;0.30;;;;;;;;;;4996600;28;20468;-76
2021/01/23 08:41:55;;;;;;;0.32;0.32;;;;;;;;;;5002749;28;20483;-78
2021/01/23 08:44:22;;;;;;;0.30;0.30;;;;;;;;;;5013697;28;20017;-79
2021/01/23 08:46:48;;;;;;;0.30;0.30;;;;;;;;;;5030712;28;20040;-77
2021/01/23 08:49:13;;;;;;;0.30;0.30;;;;;;;;;;5014016;28;20011;-79
2021/01/23 08:51:38;;;;;;;0.30;0.30;;;;;;;;;;5009927;28;20023;-78
2021/01/23 08:54:04;;;;;;;0.30;0.30;;;;;;;;;;5011991;28;20254;-77
2021/01/23 08:56:29;;;;;;;0.30;0.30;;;;;;;;;;5004365;28;20014;-77
2021/01/23 08:58:54;;;;;;;0.30;0.30;;;;;;;;;;5028175;28;20089;-78
2021/01/23 09:01:20;;;;;;;0.30;0.30;;;;;;;;;;5026457;28;20285;-77
2021/01/23 09:03:45;;;;;;;0.30;0.30;;;;;;;;;;5029638;28;20029;-78
2021/01/23 09:06:11;;;;;;;0.30;0.30;;;;;;;;;;5006985;28;20030;-78
2021/01/23 09:08:36;;;;;;;0.30;0.30;;;;;;;;;;5003593;28;20022;-76
2021/01/23 09:11:01;;;;;;;0.25;0.25;;;;;;;;;;5004555;28;20017;-77
2021/01/23 09:13:27;;;;;;;0.20;0.20;;;;;;;;;;5000041;28;20029;-77
2021/01/23 09:15:53;;;;;;;0.20;0.20;;;;;;;;;;4997281;28;20399;-77
2021/01/23 09:18:18;;;;;;;0.20;0.20;;;;;;;;;;5008482;28;20053;-77
2021/01/23 09:20:45;;;;;;;0.30;0.30;;;;;;;;;;4988960;28;20098;-78
2021/01/23 09:23:11;;;;;;;0.30;0.30;;;;;;;;;;4983591;28;20401;-77
2021/01/23 09:25:36;;;;;;;0.20;0.20;;;;;;;;;;4980563;28;20041;-77
2021/01/23 09:28:01;;;;;;;0.20;0.20;;;;;;;;;;4974789;28;20077;-78
2021/01/23 09:30:27;;;;;;;0.30;0.30;;;;;;;;;;4992194;28;20368;-78
2021/01/23 09:32:52;;;;;;;0.30;0.30;;;;;;;;;;5007859;28;20021;-77
2021/01/23 09:35:17;;;;;;;0.30;0.30;;;;;;;;;;5019739;28;20022;-75
2021/01/23 09:37:43;;;;;;;0.30;0.30;;;;;;;;;;4995678;28;20057;-77
2021/01/23 09:40:08;;;;;;;0.20;0.20;;;;;;;;;;4982089;28;20113;-77
2021/01/23 09:42:33;;;;;;;0.30;0.30;;;;;;;;;;4979453;28;20031;-78
2021/01/23 09:44:59;;;;;;;0.30;0.30;;;;;;;;;;4980227;28;20022;-77
2021/01/23 09:47:24;;;;;;;0.30;0.30;;;;;;;;;;5013147;28;20029;-76
2021/01/23 09:49:49;;;;;;;0.30;0.30;;;;;;;;;;4995923;28;20434;-77
2021/01/23 09:52:14;;;;;;;0.20;0.20;;;;;;;;;;4978127;28;20026;-78
2021/01/23 09:54:40;;;;;;;0.20;0.20;;;;;;;;;;4981985;28;20627;-78
2021/01/23 09:57:05;;;;;;;0.22;0.22;;;;;;;;;;4985083;28;20026;-77
2021/01/23 09:59:30;;;;;;;0.28;0.28;;;;;;;;;;5003820;28;20022;-78
2021/01/23 10:01:59;;;;;;;0.22;0.22;;;;;;;;;;5005726;28;20026;-77
2021/01/23 10:04:25;;;;;;;0.20;0.20;;;;;;;;;;5001545;28;20040;-77
2021/01/23 10:06:50;;;;;;;0.30;0.30;;;;;;;;;;5007256;28;20025;-79
2021/01/23 10:09:17;;;;;;;0.20;0.20;;;;;;;;;;4997285;28;20102;-79
2021/01/23 10:11:43;;;;;;;0.30;0.30;;;;;;;;;;5018937;28;20295;-79
2021/01/23 10:14:08;;;;;;;0.30;0.30;;;;;;;;;;5018389;28;20022;-78
2021/01/23 10:16:33;;;;;;;0.30;0.30;;;;;;;;;;5036472;28;20050;-79
2021/01/23 10:18:59;;;;;;;0.30;0.30;;;;;;;;;;5019570;28;20022;-79
2021/01/23 10:26:34;;;;;;;0.30;0.30;;;;;;;;;;5275010;23;20053;-77
2021/01/23 10:29:00;;;;;;;0.22;0.22;;;;;;;;;;5002175;28;20080;-77
2021/01/23 10:31:25;;;;;;;0.20;0.20;;;;;;;;;;5005164;28;20030;-77
2021/01/23 10:33:50;;;;;;;0.30;0.30;;;;;;;;;;5003873;28;20018;-76
2021/01/23 10:36:16;;;;;;;0.30;0.30;;;;;;;;;;4999601;28;20116;-75
2021/01/23 10:38:41;;;;;;;0.28;0.28;;;;;;;;;;4997443;28;20019;-75
2021/01/23 10:41:06;;;;;;;0.20;0.20;;;;;;;;;;4983417;28;20032;-76
2021/01/23 10:43:32;;;;;;;0.30;0.30;;;;;;;;;;4998775;28;20879;-76
2021/01/23 10:45:57;;;;;;;0.20;0.20;;;;;;;;;;5020503;28;20038;-76
2021/01/23 10:48:23;;;;;;;0.20;0.20;;;;;;;;;;5003158;28;20022;-76
2021/01/23 10:50:48;;;;;;;0.30;0.30;;;;;;;;;;4986981;28;20022;-75
2021/01/23 10:53:13;;;;;;;0.20;0.20;;;;;;;;;;4986082;28;20261;-75
2021/01/23 10:55:38;;;;;;;0.20;0.20;;;;;;;;;;4984610;28;20799;-76
2021/01/23 10:58:03;;;;;;;0.20;0.20;;;;;;;;;;4972471;28;20117;-75
2021/01/23 11:00:29;;;;;;;0.20;0.20;;;;;;;;;;4996558;28;20261;-74
2021/01/23 11:02:54;;;;;;;0.20;0.20;;;;;;;;;;4982965;28;20028;-75
2021/01/23 11:05:19;;;;;;;0.20;0.20;;;;;;;;;;4999953;28;20068;-76
2021/01/23 11:07:44;;;;;;;0.20;0.20;;;;;;;;;;5000666;28;20022;-75
2021/01/23 11:10:11;;;;;;;0.20;0.20;;;;;;;;;;5001498;28;20328;-75
2021/01/23 11:12:36;;;;;;;0.20;0.20;;;;;;;;;;4986249;28;20029;-76
2021/01/23 11:15:01;;;;;;;0.20;0.20;;;;;;;;;;5000669;28;20026;-76
2021/01/23 11:17:27;;;;;;;0.20;0.20;;;;;;;;;;4999384;28;20095;-76
2021/01/23 11:19:52;;;;;;;0.20;0.20;;;;;;;;;;4979570;28;20033;-76
2021/01/23 11:22:18;;;;;;;0.30;0.30;;;;;;;;;;5000976;28;20292;-78
2021/01/23 11:24:43;;;;;;;0.30;0.30;;;;;;;;;;4983377;28;20094;-78
2021/01/23 11:27:08;;;;;;;0.30;0.30;;;;;;;;;;4998817;28;20499;-77
2021/01/23 11:29:34;;;;;;;0.30;0.30;;;;;;;;;;4972596;28;20495;-77
2021/01/23 11:32:00;;;;;;;0.30;0.30;;;;;;;;;;4984697;28;20554;-77
2021/01/23 11:34:25;;;;;;;0.20;0.20;;;;;;;;;;5002327;28;20058;-77
2021/01/23 11:36:51;;;;;;;0.20;0.20;;;;;;;;;;5018665;28;20022;-77
2021/01/23 11:39:16;;;;;;;0.22;0.22;;;;;;;;;;5018564;28;20546;-78
2021/01/23 11:41:43;;;;;;;0.25;0.25;;;;;;;;;;4981851;28;20113;-77
2021/01/23 11:44:08;;;;;;;0.30;0.30;;;;;;;;;;4984376;28;20018;-79
2021/01/23 11:46:33;;;;;;;0.20;0.20;;;;;;;;;;5007044;28;20038;-74
2021/01/23 11:48:59;;;;;;;0.30;0.30;;;;;;;;;;4979037;28;20487;-75
2021/01/23 11:51:24;;;;;;;0.20;0.20;;;;;;;;;;4978959;28;20084;-75
2021/01/23 11:53:49;;;;;;;0.20;0.20;;;;;;;;;;4980038;28;20375;-76
2021/01/23 11:56:14;;;;;;;0.20;0.20;;;;;;;;;;4980699;28;20364;-77
2021/01/23 11:58:40;;;;;;;0.20;0.20;;;;;;;;;;4979710;28;20101;-75
2021/01/23 12:01:05;;;;;;;0.28;0.28;;;;;;;;;;4997483;28;20026;-76
2021/01/23 12:03:31;;;;;;;0.20;0.20;;;;;;;;;;4982381;28;20014;-76
2021/01/23 12:05:56;;;;;;;0.20;0.20;;;;;;;;;;4999035;28;20413;-75
2021/01/23 12:08:21;;;;;;;0.20;0.20;;;;;;;;;;5018054;28;20014;-77
2021/01/23 12:10:47;;;;;;;0.20;0.20;;;;;;;;;;4969391;28;20120;-76
2021/01/23 12:13:12;;;;;;;0.20;0.20;;;;;;;;;;4965604;28;20108;-75
2021/01/23 12:15:37;;;;;;;0.20;0.20;;;;;;;;;;5000995;28;20080;-77
2021/01/23 12:18:02;;;;;;;0.20;0.20;;;;;;;;;;5001724;28;20026;-76
2021/01/23 12:20:28;;;;;;;0.20;0.20;;;;;;;;;;4999717;28;20022;-75
2021/01/23 12:22:53;;;;;;;0.20;0.20;;;;;;;;;;4984184;28;20113;-76
2021/01/23 12:25:19;;;;;;;0.20;0.20;;;;;;;;;;5016759;28;20076;-75
2021/01/23 12:27:44;;;;;;;0.20;0.20;;;;;;;;;;4997480;28;20014;-75
2021/01/23 12:30:10;;;;;;;0.20;0.20;;;;;;;;;;4981411;28;20113;-75
2021/01/23 12:32:36;;;;;;;0.20;0.20;;;;;;;;;;4978392;28;20058;-75
2021/01/23 12:35:01;;;;;;;0.20;0.20;;;;;;;;;;4981206;28;20045;-75
2021/01/23 12:37:28;;;;;;;0.20;0.20;;;;;;;;;;4980029;28;20026;-74
2021/01/23 12:39:54;;;;;;;0.30;0.30;;;;;;;;;;4996501;28;20022;-74
2021/01/23 12:42:19;;;;;;;0.30;0.30;;;;;;;;;;4995960;28;20037;-75
2021/01/23 12:44:44;;;;;;;0.20;0.20;;;;;;;;;;4979871;28;20785;-75
2021/01/23 12:47:09;;;;;;;0.20;0.20;;;;;;;;;;4980087;28;20363;-75
2021/01/23 12:49:34;;;;;;;0.20;0.20;;;;;;;;;;5013960;28;20017;-75
2021/01/23 12:52:00;;;;;;;0.20;0.20;;;;;;;;;;4996433;28;20288;-75
2021/01/23 12:54:25;;;;;;;0.20;0.20;;;;;;;;;;5014107;28;20084;-76
2021/01/23 12:56:51;;;;;;;0.20;0.20;;;;;;;;;;4996703;28;20028;-74
2021/01/23 12:59:16;;;;;;;0.20;0.20;;;;;;;;;;4996298;28;20032;-72
2021/01/23 13:01:42;;;;;;;0.20;0.20;;;;;;;;;;5013299;28;20025;-72
2021/01/23 13:04:07;;;;;;;0.20;0.20;;;;;;;;;;4995737;28;20056;-71
2021/01/23 13:06:32;;;;;;;0.20;0.20;;;;;;;;;;4963994;28;20029;-73
2021/01/23 13:08:57;;;;;;;0.20;0.20;;;;;;;;;;4963984;28;20493;-74
2021/01/23 13:11:23;;;;;;;0.20;0.20;;;;;;;;;;4968917;28;20482;-75
2021/01/23 13:13:49;;;;;;;0.20;0.20;;;;;;;;;;4982201;28;20018;-74
2021/01/23 13:16:17;;;;;;;0.20;0.20;;;;;;;;;;4959406;28;20019;-75
2021/01/23 13:18:42;;;;;;;0.20;0.20;;;;;;;;;;4974813;28;20026;-74
2021/01/23 13:21:08;;;;;;;0.20;0.20;;;;;;;;;;4962731;28;20061;-74
2021/01/23 13:23:33;;;;;;;0.20;0.20;;;;;;;;;;4977038;28;20541;-75
2021/01/23 13:25:58;;;;;;;0.20;0.20;;;;;;;;;;4982107;28;20329;-75
2021/01/23 13:28:23;;;;;;;0.20;0.20;;;;;;;;;;4987501;28;20022;-75
2021/01/23 13:30:48;;;;;;;0.20;0.20;;;;;;;;;;4985117;28;20025;-75
2021/01/23 13:33:14;;;;;;;0.20;0.20;;;;;;;;;;5012176;28;20026;-75
2021/01/23 13:35:39;;;;;;;0.20;0.20;;;;;;;;;;4995695;28;20261;-75
2021/01/23 13:38:04;;;;;;;0.20;0.20;;;;;;;;;;4994463;28;20322;-75
2021/01/23 13:40:29;;;;;;;0.20;0.20;;;;;;;;;;5011139;28;20300;-75
2021/01/23 13:42:54;;;;;;;0.20;0.20;;;;;;;;;;4992727;28;20057;-75
2021/01/23 13:45:20;;;;;;;0.20;0.20;;;;;;;;;;4991160;28;20069;-68
2021/01/23 13:47:45;;;;;;;0.20;0.20;;;;;;;;;;4999930;28;20301;-69
2021/01/23 13:50:12;;;;;;;0.20;0.20;;;;;;;;;;4993667;28;20261;-68
2021/01/23 13:52:37;;;;;;;0.20;0.20;;;;;;;;;;5007307;28;20022;-68
2021/01/23 13:55:03;;;;;;;0.20;0.20;;;;;;;;;;5009022;28;20034;-69
2021/01/23 13:57:28;;;;;;;0.20;0.20;;;;;;;;;;5010992;28;20689;-69
2021/01/23 13:59:54;;;;;;;0.20;0.20;;;;;;;;;;5012186;28;20026;-69
2021/01/23 14:02:20;;;;;;;0.20;0.20;;;;;;;;;;5010460;28;20029;-68
2021/01/23 14:04:45;;;;;;;0.20;0.20;;;;;;;;;;5009512;28;20097;-68
2021/01/23 14:07:10;;;;;;;0.20;0.20;;;;;;;;;;5010342;28;20474;-69
2021/01/23 14:09:35;;;;;;;0.20;0.20;;;;;;;;;;5015138;28;20069;-68
2021/01/23 14:12:01;;;;;;;0.20;0.20;;;;;;;;;;5014323;28;20268;-68
2021/01/23 14:14:26;;;;;;;0.20;0.20;;;;;;;;;;5014453;28;20034;-69
2021/01/23 14:16:52;;;;;;;0.20;0.20;;;;;;;;;;5013986;28;20428;-69
2021/01/23 14:19:17;;;;;;;0.20;0.20;;;;;;;;;;5013604;28;20033;-69
2021/01/23 14:21:42;;;;;;;0.20;0.20;;;;;;;;;;5014190;28;20029;-68
2021/01/23 14:24:07;;;;;;;0.20;0.20;;;;;;;;;;4997500;28;20040;-68
2021/01/23 14:26:33;;;;;;;0.20;0.20;;;;;;;;;;5013502;28;20665;-68
2021/01/23 14:28:58;;;;;;;0.20;0.20;;;;;;;;;;5009824;28;20025;-68
2021/01/23 14:31:23;;;;;;;0.20;0.20;;;;;;;;;;5014024;28;20037;-69
2021/01/23 14:33:48;;;;;;;0.25;0.25;;;;;;;;;;4998696;28;20030;-69
2021/01/23 14:36:14;;;;;;;0.20;0.20;;;;;;;;;;5014970;28;20101;-69
2021/01/23 14:38:39;;;;;;;0.20;0.20;;;;;;;;;;5014779;28;20283;-69
2021/01/23 14:41:06;;;;;;;0.20;0.20;;;;;;;;;;4990950;28;20081;-69
2021/01/23 14:43:32;;;;;;;0.20;0.20;;;;;;;;;;5005406;28;20045;-69